Time;durP1;ratioP1;P1;durP2;ratioP2;P2;SDS_P1;SDS_P2;PMS_P1;PMS_P2;Temp;Humidity;BMP_temperature;BMP_pressure;BME280_temperature;BME280_humidity;BME280_pressure;Samples;Min_cycle;Max_cycle;Signal;HPM_P1;HPM_P2
2022/08/24 00:02:01;;;;;;;8.85;7.95;;;23.20;99.90;;;23.84;76.87;101627.31;4823304;29;20054;-77
2022/08/24 00:04:30;;;;;;;10.55;7.93;;;23.30;99.90;;;23.74;77.16;101626.00;4824388;29;20481;-76
2022/08/24 00:07:00;;;;;;;9.20;7.43;;;23.20;99.90;;;23.44;78.03;101598.56;4824351;29;20054;-77
2022/08/24 00:09:28;;;;;;;9.75;6.93;;;23.00;99.90;;;23.49;78.21;101612.75;4824120;29;20038;-75
2022/08/24 00:11:57;;;;;;;7.50;5.05;;;22.90;99.90;;;23.50;78.41;101613.63;4827129;29;20046;-77
2022/08/24 00:14:25;;;;;;;6.88;4.93;;;22.90;99.90;;;23.39;78.60;101614.09;4828153;29;20051;-77
2022/08/24 00:16:56;;;;;;;7.75;4.72;;;22.80;99.90;;;23.44;78.30;101624.72;4827922;29;20050;-77
2022/08/24 00:19:25;;;;;;;7.93;4.70;;;22.90;99.90;;;23.40;78.38;101621.28;4827636;29;20058;-77
2022/08/24 00:21:53;;;;;;;5.78;4.45;;;22.90;99.90;;;23.39;78.59;101618.63;4827764;29;20154;-77
2022/08/24 00:24:22;;;;;;;6.32;5.05;;;22.90;99.90;;;23.47;78.36;101621.88;4827660;29;20076;-77
2022/08/24 00:26:50;;;;;;;5.38;4.88;;;23.00;99.90;;;23.50;78.10;101625.28;4827498;29;20496;-76
2022/08/24 00:29:20;;;;;;;5.30;4.80;;;23.00;99.90;;;23.39;78.08;101616.81;4827625;29;20049;-77
2022/08/24 00:31:49;;;;;;;5.83;5.00;;;23.00;99.90;;;23.41;78.28;101625.72;4826338;29;20050;-77
2022/08/24 00:34:19;;;;;;;7.00;4.20;;;22.90;99.90;;;22.85;78.36;101536.44;4827244;29;20062;-77
2022/08/24 00:36:48;;;;;;;6.03;4.57;;;22.90;99.90;;;23.47;78.26;101625.44;4827283;29;20454;-77
2022/08/24 00:39:16;;;;;;;4.90;4.50;;;22.90;99.90;;;23.45;77.88;101607.53;4827723;29;20039;-76
2022/08/24 00:41:49;;;;;;;6.30;4.57;;;23.00;99.90;;;23.52;77.83;101615.28;4827369;29;20100;-77
2022/08/24 00:44:19;;;;;;;4.82;4.22;;;23.00;99.90;;;23.34;77.92;101581.06;4827255;29;20107;-77
2022/08/24 00:46:54;;;;;;;5.88;4.57;;;23.00;99.90;;;23.54;77.86;101623.34;4827371;29;20076;-77
2022/08/24 00:49:29;;;;;;;4.72;4.20;;;23.00;99.90;;;23.56;77.84;101619.63;4827303;29;20382;-77
2022/08/24 00:52:05;;;;;;;4.90;4.20;;;23.00;99.90;;;23.38;77.78;101596.16;4827031;29;20472;-77
2022/08/24 00:54:40;;;;;;;4.80;4.03;;;23.00;99.90;;;23.54;78.35;101623.34;4825993;29;20146;-77
2022/08/24 00:57:19;;;;;;;4.50;4.07;;;23.00;99.90;;;23.59;78.10;101621.31;4825701;29;20077;-77
2022/08/24 00:59:52;;;;;;;4.93;3.90;;;23.00;99.90;;;23.46;77.96;101590.41;4825851;29;20696;-77
2022/08/24 01:02:26;;;;;;;4.30;3.90;;;23.00;99.90;;;23.56;77.74;101614.22;4825823;29;20054;-78
2022/08/24 01:05:00;;;;;;;7.13;3.78;;;23.10;99.90;;;23.54;77.97;101618.81;4825689;29;20427;-78
2022/08/24 01:07:31;;;;;;;5.03;3.80;;;23.00;99.90;;;23.47;78.13;101608.34;4827062;29;20111;-77
2022/08/24 01:10:03;;;;;;;6.78;4.57;;;23.00;99.90;;;23.36;78.66;101606.16;4827026;29;20046;-77
2022/08/24 01:12:35;;;;;;;5.20;3.60;;;22.80;99.90;;;23.30;78.99;101607.28;4826860;29;20047;-77
2022/08/24 01:15:08;;;;;;;5.10;4.10;;;22.80;99.90;;;23.33;79.44;101608.09;4826993;29;20129;-77
2022/08/24 01:20:25;;;;;;;6.10;4.30;;;22.70;99.90;;;23.34;79.24;101612.56;4825604;29;20549;-77
2022/08/24 01:23:06;;;;;;;5.25;4.75;;;22.70;99.90;;;23.37;79.09;101617.81;4824678;29;20054;-77
2022/08/24 01:25:38;;;;;;;5.70;5.20;;;22.80;99.90;;;23.36;79.27;101608.88;4826696;29;20069;-77
2022/08/24 01:28:13;;;;;;;5.43;4.93;;;22.90;99.90;;;23.45;79.20;101626.44;4825478;29;20054;-77
2022/08/24 01:30:44;;;;;;;7.43;6.13;;;23.00;99.90;;;23.50;78.91;101619.88;4825413;29;20107;-77
2022/08/24 01:33:25;;;;;;;7.45;6.10;;;23.00;99.90;;;23.58;78.66;101628.53;4826382;29;20074;-77
2022/08/24 01:36:01;;;;;;;7.10;6.50;;;23.10;99.90;;;23.54;78.44;101621.50;4826497;29;20065;-77
2022/08/24 01:38:30;;;;;;;7.32;5.97;;;23.10;99.90;;;23.63;78.06;101631.03;4825323;29;20477;-77
2022/08/24 01:41:04;;;;;;;6.88;5.38;;;23.10;99.90;;;23.44;77.79;101595.00;4825030;29;20050;-77
2022/08/24 01:43:33;;;;;;;7.78;5.80;;;23.10;99.90;;;23.71;77.57;101635.09;4825207;29;20059;-77
2022/08/24 01:46:07;;;;;;;7.53;6.47;;;23.20;99.90;;;23.70;77.58;101637.88;4825104;29;20057;-77
2022/08/24 01:48:35;;;;;;;8.95;6.30;;;23.20;99.90;;;23.74;77.70;101640.38;4826461;29;20057;-76
2022/08/24 01:51:04;;;;;;;7.22;6.53;;;23.20;99.90;;;23.76;77.19;101640.31;4826258;29;20050;-78
2022/08/24 01:53:32;;;;;;;7.38;5.03;;;23.20;99.90;;;23.68;77.25;101648.78;4825033;29;20051;-78
2022/08/24 01:56:03;;;;;;;5.45;4.40;;;23.30;99.90;;;23.81;77.04;101655.34;4826178;29;20078;-77
2022/08/24 01:58:32;;;;;;;5.03;4.53;;;23.30;99.90;;;23.84;76.58;101652.53;4824979;29;20497;-77
2022/08/24 02:01:00;;;;;;;5.93;4.25;;;23.30;99.90;;;23.90;76.50;101645.97;4824881;29;20054;-78
2022/08/24 02:03:29;;;;;;;5.10;4.60;;;23.40;99.90;;;23.92;75.97;101653.06;4825864;29;20513;-77
2022/08/24 02:05:59;;;;;;;4.75;4.35;;;23.40;99.90;;;23.95;76.19;101649.31;4824872;29;20078;-78
2022/08/24 02:08:29;;;;;;;4.40;4.00;;;23.40;99.90;;;23.97;76.17;101644.72;4824783;29;20087;-78
2022/08/24 02:10:57;;;;;;;4.20;3.80;;;23.50;99.90;;;24.02;76.10;101646.28;4824788;29;20054;-78
2022/08/24 02:13:27;;;;;;;6.43;5.82;;;23.50;99.90;;;24.04;76.05;101641.66;4826048;29;20042;-78
2022/08/24 02:15:56;;;;;;;6.63;5.95;;;23.50;99.90;;;23.95;77.52;101639.38;4824754;29;20087;-77
2022/08/24 02:18:25;;;;;;;6.97;6.25;;;23.50;99.90;;;23.83;78.26;101631.84;4824679;29;20047;-77
2022/08/24 02:20:53;;;;;;;5.70;5.20;;;23.40;99.90;;;23.61;78.58;101630.22;4824550;29;20060;-77
2022/08/24 02:23:22;;;;;;;6.60;6.00;;;23.10;99.90;;;23.65;78.25;101642.66;4839841;29;20086;-78
2022/08/24 02:25:51;;;;;;;6.40;5.78;;;23.10;99.90;;;23.56;79.22;101635.81;4824431;29;20137;-78
2022/08/24 02:28:19;;;;;;;6.18;5.65;;;23.00;99.90;;;23.63;79.14;101640.03;4826007;29;20050;-77
2022/08/24 02:30:49;;;;;;;6.20;5.60;;;23.10;99.90;;;23.57;78.96;101634.88;4824453;29;20050;-78
2022/08/24 02:33:18;;;;;;;4.95;4.55;;;23.10;99.90;;;23.71;78.59;101640.50;4824121;29;20055;-77
2022/08/24 02:35:47;;;;;;;5.93;5.32;;;23.10;99.90;;;23.25;78.12;101567.91;4824413;29;20046;-78
2022/08/24 02:38:15;;;;;;;5.95;5.40;;;23.20;99.90;;;23.69;78.15;101633.44;4825580;29;20054;-78
2022/08/24 02:40:44;;;;;;;6.03;5.43;;;23.20;99.90;;;23.74;78.73;101643.09;4824350;29;20472;-77
2022/08/24 02:43:12;;;;;;;5.55;4.85;;;23.20;99.90;;;23.72;78.35;101620.66;4824307;29;20054;-78
2022/08/24 02:45:44;;;;;;;5.28;4.30;;;23.20;99.90;;;23.71;78.10;101636.97;4824199;29;20057;-77
2022/08/24 02:48:20;;;;;;;6.95;5.25;;;23.30;99.90;;;23.75;78.42;101639.44;4824299;29;20055;-77
2022/08/24 02:50:51;;;;;;;5.95;5.40;;;23.30;99.90;;;23.54;79.74;101610.69;4824298;29;20059;-77
2022/08/24 02:53:23;;;;;;;7.45;5.60;;;23.10;99.90;;;23.70;80.12;101627.09;4824200;29;20054;-77
2022/08/24 02:55:51;;;;;;;5.63;5.13;;;23.10;99.90;;;23.69;80.23;101634.31;4824108;29;20367;-77
2022/08/24 02:58:20;;;;;;;6.43;5.07;;;23.20;99.90;;;23.51;80.61;101629.78;4824143;29;20514;-78
2022/08/24 03:00:49;;;;;;;6.70;5.07;;;23.00;99.90;;;23.40;80.61;101632.09;4824072;29;20054;-77
2022/08/24 03:03:21;;;;;;;6.03;5.25;;;22.80;99.90;;;23.46;80.88;101630.94;4823613;29;20066;-77
2022/08/24 03:05:50;;;;;;;5.88;5.38;;;22.90;99.90;;;23.44;81.00;101625.56;4823893;29;20508;-78
2022/08/24 03:08:21;;;;;;;5.35;4.82;;;22.90;99.90;;;23.43;80.80;101633.75;4823918;29;20153;-77
2022/08/24 03:10:51;;;;;;;5.77;5.17;;;22.80;99.90;;;22.90;82.41;101633.41;4823857;29;20050;-77
2022/08/24 03:13:20;;;;;;;6.10;5.18;;;22.40;99.90;;;22.70;83.33;101617.19;4823589;29;20377;-77
2022/08/24 03:15:48;;;;;;;6.65;5.55;;;22.10;99.90;;;22.93;83.22;101627.88;4823869;29;20058;-77
2022/08/24 03:18:16;;;;;;;6.35;5.10;;;22.30;99.90;;;23.09;82.85;101642.47;4825069;29;20121;-77
2022/08/24 03:20:54;;;;;;;6.32;5.63;;;22.40;99.90;;;23.17;82.98;101640.31;4823674;29;20446;-78
2022/08/24 03:23:24;;;;;;;7.53;5.53;;;22.60;99.90;;;23.12;82.57;101635.09;4823513;29;20149;-77
2022/08/24 03:25:52;;;;;;;6.15;4.85;;;22.50;99.90;;;23.18;82.62;101634.81;4823587;29;20050;-78
2022/08/24 03:28:22;;;;;;;5.30;4.80;;;22.60;99.90;;;23.13;82.73;101630.59;4823668;29;20046;-77
2022/08/24 03:30:51;;;;;;;7.97;5.22;;;22.60;99.90;;;23.06;83.20;101635.34;4823713;29;20061;-77
2022/08/24 03:33:20;;;;;;;5.60;5.10;;;22.50;99.90;;;22.94;83.61;101635.00;4823559;29;20138;-77
2022/08/24 03:35:49;;;;;;;7.63;4.90;;;22.40;99.90;;;22.88;84.22;101636.16;4823558;29;20058;-77
2022/08/24 03:38:20;;;;;;;6.22;5.07;;;22.30;99.90;;;22.98;84.41;101637.50;4823523;29;20516;-77
2022/08/24 03:40:49;;;;;;;5.85;5.20;;;22.40;99.90;;;23.09;83.89;101635.22;4823565;29;20476;-77
2022/08/24 03:46:02;;;;;;;5.90;5.05;;;22.60;99.90;;;23.26;83.19;101634.47;4822469;29;20137;-77
2022/08/24 03:48:30;;;;;;;6.47;4.80;;;22.80;99.90;;;23.34;82.92;101643.16;4823542;29;20413;-77
2022/08/24 03:50:59;;;;;;;8.75;6.00;;;22.80;99.90;;;23.38;82.36;101643.91;4824624;29;20143;-77
2022/08/24 03:53:29;;;;;;;6.55;5.40;;;22.80;99.90;;;23.33;82.13;101638.69;4823341;29;20085;-77
2022/08/24 03:55:58;;;;;;;6.10;5.35;;;22.90;99.90;;;23.29;82.18;101629.81;4823409;29;20451;-77
2022/08/24 03:58:35;;;;;;;5.00;4.55;;;22.80;99.90;;;23.34;81.90;101629.66;4823285;29;20050;-78
2022/08/24 04:01:05;;;;;;;6.72;5.05;;;22.90;99.90;;;23.44;81.53;101628.28;4823212;29;20050;-77
2022/08/24 04:03:36;;;;;;;7.17;5.43;;;22.90;99.90;;;23.50;81.48;101630.69;4822936;29;20416;-78
2022/08/24 04:06:06;;;;;;;10.02;4.57;;;23.00;99.90;;;23.57;81.08;101645.69;4823162;29;20469;-78
2022/08/24 04:08:36;;;;;;;7.93;5.18;;;23.10;99.90;;;23.58;80.89;101642.03;4822946;29;20061;-78
2022/08/24 04:11:06;;;;;;;5.38;4.88;;;23.10;99.90;;;23.62;80.87;101649.06;4824500;29;20497;-77
2022/08/24 04:13:34;;;;;;;8.48;5.30;;;23.10;99.90;;;23.60;80.70;101640.13;4822694;29;20054;-77
2022/08/24 04:16:05;;;;;;;6.95;5.05;;;23.10;99.90;;;23.58;80.97;101647.44;4823268;29;20566;-77
2022/08/24 04:18:34;;;;;;;5.57;4.95;;;23.10;99.90;;;23.53;80.97;101644.09;4823071;29;20475;-77
2022/08/24 04:21:03;;;;;;;8.70;4.60;;;23.10;99.90;;;23.55;81.13;101646.69;4823972;29;20126;-76
2022/08/24 04:23:33;;;;;;;6.40;4.50;;;23.00;99.90;;;23.56;80.85;101648.44;4822978;29;20073;-77
2022/08/24 04:26:17;;;;;;;5.50;5.00;;;23.10;99.90;;;23.50;80.92;101641.50;4822900;29;20091;-77
2022/08/24 04:29:08;;;;;;;6.70;4.88;;;23.10;99.90;;;23.50;80.87;101644.19;4822986;29;20081;-77
2022/08/24 04:31:43;;;;;;;6.97;4.97;;;23.00;99.90;;;23.57;81.30;101656.50;4822947;29;20115;-77
2022/08/24 04:34:14;;;;;;;9.20;4.95;;;23.10;99.90;;;23.58;81.28;101649.25;4822948;29;20515;-78
2022/08/24 04:36:44;;;;;;;8.43;5.28;;;23.10;99.90;;;23.60;81.08;101647.38;4822854;29;20058;-77
2022/08/24 04:39:13;;;;;;;;;;;23.10;99.90;;;23.59;80.88;101656.44;4823314;29;20061;-77
2022/08/24 04:42:06;;;;;;;7.57;5.10;;;23.20;99.90;;;23.56;80.78;101641.22;4838078;29;19925;-77
2022/08/24 04:44:39;;;;;;;5.72;5.10;;;23.10;99.90;;;23.57;80.91;101645.69;4822903;29;20054;-77
2022/08/24 04:47:08;;;;;;;7.38;4.85;;;23.10;99.90;;;23.54;81.01;101650.38;4822674;29;20050;-77
2022/08/24 04:49:38;;;;;;;;;;;23.00;99.90;;;23.50;81.11;101649.59;4823269;29;20057;-77
2022/08/24 04:52:08;;;;;;;7.22;5.55;;;23.00;99.90;;;23.55;81.34;101658.41;4837920;29;20295;-76
2022/08/24 04:54:37;;;;;;;5.80;5.20;;;23.00;99.90;;;23.56;81.25;101660.13;4822785;29;20167;-77
2022/08/24 04:57:11;;;;;;;6.78;5.57;;;23.00;99.90;;;23.58;81.23;101650.13;4822829;29;20074;-77
2022/08/24 04:59:46;;;;;;;6.00;4.88;;;23.00;99.90;;;23.68;81.09;101658.69;4827145;29;20129;-77
2022/08/24 05:02:15;;;;;;;5.07;4.68;;;23.10;99.90;;;23.58;81.55;101658.25;4826866;29;20460;-77
2022/08/24 05:04:47;;;;;;;7.28;5.63;;;23.00;99.90;;;23.53;82.57;101671.09;4825703;29;20115;-76
2022/08/24 05:07:16;;;;;;;7.75;5.20;;;23.00;99.90;;;23.69;82.89;101669.44;4826915;29;20046;-78
2022/08/24 05:09:46;;;;;;;7.47;5.07;;;23.10;99.90;;;23.77;82.32;101666.41;4827035;29;20050;-79
2022/08/24 05:12:15;;;;;;;6.03;5.25;;;23.20;99.90;;;23.87;81.89;101671.28;4826881;29;20350;-78
2022/08/24 05:14:53;;;;;;;6.72;5.03;;;23.30;99.90;;;23.90;81.11;101670.28;4825680;29;20054;-81
2022/08/24 05:17:22;;;;;;;6.00;5.20;;;23.30;99.90;;;23.88;81.14;101670.38;4825622;29;20066;-80
2022/08/24 05:19:50;;;;;;;7.45;4.70;;;23.30;99.90;;;23.90;81.80;101673.88;4825839;29;20370;-73
2022/08/24 05:22:19;;;;;;;6.53;5.00;;;23.30;99.90;;;23.67;83.15;101662.38;4825517;29;20059;-81
2022/08/24 05:24:53;;;;;;;8.20;5.25;;;23.20;99.90;;;23.82;82.38;101676.06;4825515;29;20050;-76
2022/08/24 05:27:25;;;;;;;6.82;4.65;;;23.20;99.90;;;23.87;81.96;101676.69;4825116;29;20455;-75
2022/08/24 05:29:54;;;;;;;6.78;4.60;;;23.30;99.90;;;23.81;81.90;101682.38;4825317;29;20057;-79
2022/08/24 05:32:23;;;;;;;5.43;4.90;;;23.20;99.90;;;23.88;81.86;101678.47;4825637;29;20394;-78
2022/08/24 05:34:53;;;;;;;6.40;4.78;;;23.30;99.90;;;23.95;81.99;101674.53;4823382;29;20145;-78
2022/08/24 05:37:23;;;;;;;6.43;5.68;;;23.40;99.90;;;23.92;81.47;101677.38;4824630;29;20455;-78
2022/08/24 05:40:14;;;;;;;13.48;5.35;;;23.40;99.90;;;23.55;82.33;101681.81;4824625;29;20461;-78
2022/08/24 05:42:47;;;;;;;6.60;5.68;;;23.10;99.90;;;23.52;83.39;101671.16;4824898;29;20062;-78
2022/08/24 05:45:16;;;;;;;8.93;5.43;;;23.00;99.90;;;23.38;84.20;101663.69;4824964;29;20119;-78
2022/08/24 05:47:45;;;;;;;10.60;5.97;;;22.90;99.90;;;22.98;84.76;101591.63;4824854;29;20489;-78
2022/08/24 05:50:36;;;;;;;9.82;6.05;;;22.90;99.90;;;23.77;84.89;101663.69;4825823;29;20074;-78
2022/08/24 05:53:04;;;;;;;7.90;5.85;;;23.20;99.90;;;24.13;84.46;101689.94;4824892;29;20062;-78
2022/08/24 05:55:33;;;;;;;7.72;6.10;;;23.50;99.90;;;24.42;83.36;101682.22;4824918;29;20077;-78
2022/08/24 05:58:03;;;;;;;7.20;5.55;;;23.80;99.90;;;24.47;81.39;101677.44;4824760;29;20576;-78
2022/08/24 06:00:32;;;;;;;7.65;5.82;;;24.00;99.90;;;24.49;80.71;101679.13;4824802;29;20058;-78
2022/08/24 06:03:00;;;;;;;7.18;6.43;;;24.00;99.90;;;24.54;80.40;101685.22;4825927;29;20069;-77
2022/08/24 06:05:29;;;;;;;7.68;6.32;;;24.00;99.90;;;24.72;80.27;101683.44;4824791;29;20062;-78
2022/08/24 06:07:59;;;;;;;9.77;6.13;;;24.10;99.90;;;24.97;80.34;101678.56;4825310;29;20494;-78
2022/08/24 06:10:28;;;;;;;9.57;5.95;;;24.40;99.90;;;24.95;79.20;101670.50;4824267;29;20073;-77
2022/08/24 06:13:07;;;;;;;7.20;6.50;;;24.40;99.90;;;25.09;79.59;101682.47;4824389;29;20080;-77
2022/08/24 06:15:36;;;;;;;9.65;6.70;;;24.50;99.90;;;24.63;79.12;101578.34;4809741;29;20466;-76
2022/08/24 06:18:06;;;;;;;7.45;6.43;;;24.70;99.90;;;25.37;78.05;101704.47;4824328;29;20073;-74
2022/08/24 06:20:41;;;;;;;11.13;6.72;;;24.80;99.90;;;24.92;77.10;101577.75;4824323;29;20057;-74
2022/08/24 06:23:10;;;;;;;10.27;6.30;;;25.00;99.90;;;25.75;76.95;101690.66;4825350;29;20461;-74
2022/08/24 06:28:32;;;;;;;7.68;6.07;;;25.40;99.90;;;26.18;76.40;101701.88;4824124;29;20050;-66
2022/08/24 06:31:06;;;;;;;9.77;6.40;;;25.60;99.90;;;26.32;75.17;101707.41;4825288;29;20058;-66
2022/08/24 06:33:35;;;;;;;11.45;6.10;;;25.70;99.90;;;26.45;74.86;101703.03;4823892;29;20058;-65
2022/08/24 06:36:04;;;;;;;9.05;6.10;;;25.90;99.90;;;26.69;74.04;101709.78;4824783;29;20093;-65
2022/08/24 06:38:34;;;;;;;8.52;6.30;;;26.10;99.90;;;26.89;74.02;101704.09;4823544;29;20145;-67
2022/08/24 06:41:05;;;;;;;8.13;6.40;;;26.40;99.90;;;27.07;73.08;101707.56;4823607;29;20219;-64
2022/08/24 06:43:36;;;;;;;8.15;6.43;;;26.60;99.90;;;27.10;72.11;101678.38;4823755;29;20126;-65
2022/08/24 06:46:12;;;;;;;8.70;6.57;;;26.80;99.90;;;27.46;70.91;101706.09;4823364;29;20050;-65
2022/08/24 06:48:44;;;;;;;9.38;6.95;;;27.00;99.90;;;27.57;68.85;101711.72;4823598;29;20133;-66
2022/08/24 06:51:16;;;;;;;13.98;7.00;;;27.20;99.90;;;27.77;68.95;101706.91;4824547;29;20573;-66
2022/08/24 06:53:45;;;;;;;11.55;7.55;;;27.30;99.90;;;27.89;68.09;101719.72;4823688;29;20054;-66
2022/08/24 06:56:15;;;;;;;7.38;6.60;;;27.50;99.90;;;28.01;67.87;101719.84;4823251;29;20050;-66
2022/08/24 06:58:46;;;;;;;12.57;6.70;;;27.60;99.90;;;28.19;66.76;101715.09;4823488;29;20404;-64
2022/08/24 07:01:21;;;;;;;12.63;6.20;;;27.70;99.90;;;28.30;65.66;101720.75;4823451;29;20061;-66
2022/08/24 07:03:50;;;;;;;1.13;1.13;;;27.90;99.90;;;28.50;65.50;101723.03;4822973;29;20066;-63
2022/08/24 07:06:30;;;;;;;1.15;1.15;;;28.20;99.90;;;28.64;65.20;101717.59;4823247;29;20129;-63
2022/08/24 07:09:01;;;;;;;1.20;1.20;;;28.30;99.90;;;28.80;64.35;101720.16;4823348;29;20050;-63
2022/08/24 07:11:33;;;;;;;1.25;1.25;;;28.50;99.90;;;28.85;63.19;101728.91;4823370;29;20047;-63
2022/08/24 07:14:03;;;;;;;1.20;1.20;;;28.60;99.90;;;28.88;63.11;101732.28;4823384;29;20088;-68
2022/08/24 07:16:32;;;;;;;1.15;1.15;;;28.60;99.90;;;28.74;62.47;101716.00;4838734;29;20054;-67
2022/08/24 07:19:04;;;;;;;1.10;1.10;;;28.60;99.90;;;28.83;62.44;101726.28;4823877;29;20046;-67
2022/08/24 07:21:33;;;;;;;1.20;1.20;;;28.60;99.90;;;28.72;62.18;101728.84;4822946;29;20060;-67
2022/08/24 07:24:03;;;;;;;1.15;1.15;;;28.40;99.90;;;28.56;63.25;101736.28;4823740;29;20052;-67
2022/08/24 07:26:35;;;;;;;1.10;1.10;;;28.30;99.90;;;28.46;62.60;101729.63;4823670;29;20054;-67
2022/08/24 07:29:10;;;;;;;1.00;1.00;;;28.10;99.90;;;28.42;62.98;101733.53;4823606;29;20054;-67
2022/08/24 07:31:59;;;;;;;1.25;1.25;;;28.10;99.90;;;28.51;63.49;101733.81;4823418;29;20046;-67
2022/08/24 07:34:37;;;;;;;1.17;1.17;;;28.10;99.90;;;28.33;63.06;101736.84;4823594;29;20103;-66
2022/08/24 07:37:07;;;;;;;7.78;4.10;;;28.10;99.90;;;28.22;63.10;101751.13;4823655;29;20055;-67
2022/08/24 07:39:39;;;;;;;1.00;1.00;;;27.90;99.90;;;28.16;63.19;101751.56;4823348;29;20527;-67
2022/08/24 07:42:08;;;;;;;1.27;1.27;;;27.80;99.90;;;28.19;63.75;101751.34;4823513;29;20145;-67
2022/08/24 07:44:50;;;;;;;;;;;27.80;99.90;;;28.30;63.46;101753.41;4823517;29;20145;-67
2022/08/24 07:47:18;;;;;;;1.13;1.13;;;27.90;99.90;;;28.35;63.35;101752.13;4823372;29;19925;-67
2022/08/24 07:50:13;;;;;;;1.20;1.20;;;27.90;99.90;;;28.12;63.09;101740.97;4823233;29;20050;-67
2022/08/24 07:52:42;;;;;;;1.17;1.17;;;27.80;99.90;;;28.07;63.72;101751.25;4823415;29;20066;-68
2022/08/24 07:55:12;;;;;;;1.40;1.40;;;27.70;99.90;;;28.10;63.43;101756.50;4824511;29;20042;-63
2022/08/24 07:57:43;;;;;;;;;;;27.70;99.90;;;28.02;63.94;101759.72;4823724;29;20062;-70
2022/08/24 08:00:18;;;;;;;2.13;2.03;;;27.60;99.90;;;27.94;64.15;101752.94;4822928;29;19925;-67
2022/08/24 08:02:51;;;;;;;1.50;1.50;;;27.60;99.90;;;28.10;63.73;101754.66;4823250;29;20106;-66
2022/08/24 08:05:23;;;;;;;1.55;1.45;;;27.70;99.90;;;28.06;63.09;101757.66;4823285;29;20430;-67
2022/08/24 08:07:54;;;;;;;2.28;2.17;;;27.70;99.90;;;28.01;64.20;101757.94;4823088;29;20073;-66
2022/08/24 08:10:23;;;;;;;1.13;1.13;;;27.70;99.90;;;28.04;64.23;101767.78;4823235;29;20085;-67
2022/08/24 08:12:53;;;;;;;1.10;1.10;;;27.70;99.90;;;28.11;63.55;101763.69;4823111;29;20378;-67
2022/08/24 08:15:22;;;;;;;1.20;1.20;;;27.80;99.90;;;28.20;63.83;101761.25;4823065;29;20111;-67
2022/08/24 08:18:05;;;;;;;1.30;1.30;;;27.90;99.90;;;28.38;63.41;101765.53;4823126;29;20054;-67
2022/08/24 08:20:39;;;;;;;1.30;1.30;;;28.00;99.90;;;28.41;63.20;101767.19;4823098;29;20051;-66
2022/08/24 08:26:15;;;;;;;1.17;1.17;;;28.10;99.90;;;28.56;62.80;101771.69;4808961;29;20058;-65
2022/08/24 08:28:56;;;;;;;1.33;1.33;;;28.30;99.90;;;28.71;62.33;101773.41;4822855;29;20570;-64
2022/08/24 08:31:25;;;;;;;1.17;1.17;;;28.40;99.90;;;28.67;61.35;101779.16;4823236;29;20149;-67
2022/08/24 08:33:55;;;;;;;1.20;1.20;;;28.40;99.90;;;28.70;62.25;101781.69;4826686;29;20079;-67
2022/08/24 08:36:24;;;;;;;1.27;1.27;;;28.50;99.90;;;28.67;61.90;101774.56;4826326;29;20054;-66
2022/08/24 08:38:54;;;;;;;1.23;1.23;;;28.50;99.90;;;28.87;61.45;101765.97;4826311;29;20050;-68
2022/08/24 08:42:19;;;;;;;1.10;1.10;;;28.50;99.90;;;29.05;61.46;101772.94;4826158;29;20310;-71
2022/08/24 08:45:05;;;;;;;1.08;1.08;;;28.70;99.90;;;29.09;60.96;101773.59;4826218;29;20300;-66
2022/08/24 08:48:48;;;;;;;1.10;1.10;;;28.80;99.90;;;29.30;60.79;101775.78;4826409;29;20069;-66
2022/08/24 08:51:50;;;;;;;1.20;1.20;;;29.00;99.90;;;29.18;60.45;101765.72;4756040;30;20702;-64
2022/08/24 08:54:33;;;;;;;1.40;1.40;;;29.00;99.90;;;29.15;60.25;101778.66;4827300;29;20054;-65
2022/08/24 08:57:18;;;;;;;1.20;1.20;;;28.90;99.90;;;29.22;60.18;101772.69;4826013;29;20058;-65
2022/08/24 09:00:09;;;;;;;1.13;1.13;;;28.90;99.90;;;29.07;60.71;101784.59;4827142;29;20070;-67
2022/08/24 09:03:23;;;;;;;1.48;1.48;;;28.80;99.90;;;28.82;61.38;101787.22;4825689;29;20062;-68
2022/08/24 09:06:44;;;;;;;1.30;1.30;;;28.60;99.90;;;29.08;61.39;101780.00;4818273;29;20054;-68
2022/08/24 09:09:54;;;;;;;1.20;1.20;;;28.70;99.90;;;29.21;61.27;101781.84;4825519;29;20237;-67
2022/08/24 09:12:37;;;;;;;0.98;0.98;;;28.90;99.90;;;29.32;60.34;101778.41;4795948;29;20086;-68
2022/08/24 09:15:32;;;;;;;1.17;1.17;;;29.10;99.90;;;29.48;60.34;101787.25;4825664;29;20056;-68
2022/08/24 09:18:17;;;;;;;1.13;1.13;;;29.30;99.90;;;29.64;59.63;101790.69;4826863;29;20069;-69
2022/08/24 09:21:15;;;;;;;1.05;1.05;;;29.40;99.90;;;29.82;59.43;101791.31;4826601;29;20489;-69
2022/08/24 09:24:00;;;;;;;1.10;1.10;;;29.60;99.90;;;29.88;58.11;101793.59;4825531;29;20115;-71
2022/08/24 09:26:32;;;;;;;1.00;1.00;;;29.60;99.90;;;29.94;57.70;101790.44;4825383;29;20487;-69
2022/08/24 09:29:13;;;;;;;1.00;1.00;;;29.70;99.90;;;29.93;57.33;101785.97;4825434;29;20138;-68
2022/08/24 09:32:03;;;;;;;1.05;1.05;;;29.70;99.90;;;29.90;57.02;101794.38;4825436;29;20087;-70
2022/08/24 09:34:48;;;;;;;0.90;0.90;;;29.70;99.90;;;30.02;57.86;101796.25;4826674;29;20051;-67
2022/08/24 09:37:33;;;;;;;0.93;0.93;;;29.80;99.90;;;30.07;56.98;101777.66;4826514;29;20141;-66
2022/08/24 09:40:25;;;;;;;1.02;1.02;;;29.90;99.90;;;30.11;57.40;101801.03;4826281;29;20476;-67
2022/08/24 09:43:44;;;;;;;1.00;1.00;;;29.90;99.90;;;30.17;56.29;101795.16;4824716;29;20062;-67
2022/08/24 09:47:05;;;;;;;1.10;1.10;;;29.90;99.90;;;30.32;56.51;101796.81;4798459;29;20062;-67
2022/08/24 09:50:55;;;;;;;1.02;1.02;;;30.00;99.90;;;30.38;55.13;101785.44;4826301;29;20072;-66
2022/08/24 09:54:09;;;;;;;1.00;1.00;;;30.20;99.90;;;30.43;54.36;101790.59;4826324;29;20105;-66
2022/08/24 09:56:54;;;;;;;1.05;1.05;;;30.20;99.90;;;30.56;55.79;101795.03;4824164;29;20501;-68
2022/08/24 10:00:11;;;;;;;1.10;1.10;;;30.30;99.90;;;30.62;54.90;101797.34;4826239;29;20115;-69
2022/08/24 10:03:07;;;;;;;0.93;0.93;;;30.30;99.90;;;30.56;54.63;101766.84;4826234;29;20128;-66
2022/08/24 10:06:08;;;;;;;1.00;1.00;;;30.40;99.90;;;30.51;54.34;101780.81;4825955;29;20409;-66
2022/08/24 10:08:59;;;;;;;1.08;1.08;;;30.30;99.90;;;30.69;55.29;101787.69;4825794;29;20054;-67
2022/08/24 10:11:41;;;;;;;1.00;1.00;;;30.40;99.90;;;30.70;54.83;101785.84;4825970;29;20172;-67
2022/08/24 10:14:19;;;;;;;0.80;0.80;;;30.50;99.90;;;30.71;54.43;101787.56;4825972;29;20055;-66
2022/08/24 10:17:02;;;;;;;0.82;0.82;;;30.40;99.90;;;30.73;53.37;101789.22;4825828;29;20524;-65
2022/08/24 10:19:49;;;;;;;1.00;1.00;;;30.40;99.90;;;30.63;53.15;101782.66;4824578;29;20138;-65
2022/08/24 10:22:36;;;;;;;1.00;1.00;;;30.40;99.90;;;30.57;53.59;101776.78;4825329;29;20463;-66
2022/08/24 10:25:27;;;;;;;1.00;1.00;;;30.30;99.90;;;30.55;53.96;101781.47;4825404;29;20416;-65
2022/08/24 10:28:15;;;;;;;0.95;0.95;;;30.20;99.90;;;30.52;53.63;101785.31;4824307;29;20078;-66
2022/08/24 10:31:03;;;;;;;0.95;0.95;;;30.20;99.90;;;30.40;54.11;101779.88;4824267;29;20054;-65
2022/08/24 10:33:48;;;;;;;0.93;0.93;;;30.10;99.90;;;30.36;53.70;101781.94;4825421;29;20058;-66
2022/08/24 10:37:18;;;;;;;0.90;0.90;;;29.90;99.90;;;30.11;54.00;101760.09;4825351;29;20074;-66
2022/08/24 10:40:34;;;;;;;1.33;1.33;;;29.90;99.90;;;30.08;54.53;101784.91;4769093;30;20071;-67
2022/08/24 10:43:32;;;;;;;1.02;1.02;;;29.70;99.90;;;30.01;55.71;101783.56;4825401;29;20082;-66
2022/08/24 10:46:48;;;;;;;0.90;0.90;;;29.60;99.90;;;30.08;55.59;101776.72;4823843;29;20513;-66
2022/08/24 10:50:03;;;;;;;1.10;1.10;;;29.70;99.90;;;30.24;56.17;101774.59;4821198;29;20066;-65
2022/08/24 10:53:34;;;;;;;0.98;0.98;;;29.90;99.90;;;30.38;54.76;101779.09;4823997;29;20050;-64
2022/08/24 10:56:11;;;;;;;1.00;1.00;;;30.10;99.90;;;30.41;55.56;101779.75;4824869;29;20454;-64
2022/08/24 10:58:54;;;;;;;1.08;1.08;;;30.20;99.90;;;30.52;54.42;101768.94;4824753;29;20074;-64
2022/08/24 11:01:29;;;;;;;1.10;1.10;;;30.20;99.90;;;30.55;52.78;101770.53;4823628;29;20050;-64
2022/08/24 11:04:07;;;;;;;1.10;1.10;;;30.30;99.90;;;30.64;52.86;101778.09;4824686;29;20128;-64